Terminal Aerodrome Forecast
Issued by NWS Grand Forks, ND

Home | Current Version | Previous Version | Graphics & Text | Print | Product List | Glossary On
Versions: 1 2 3 4 5 6 7 8 9 10 11 12 13 14 15 16 17 18 19 20 21 22 23 24 25 26 27 28 29
000
FTUS43 KFGF 150533 AAB
TAFGFK
TAF AMD
KGFK 150533Z 1506/1606 VRB06KT P6SM FEW006 OVC015
      TEMPO 1506/1508 BKN006
     FM151200 VRB03KT 4SM -SN OVC015
     FM151500 15006KT 2SM -SN OVC025
     FM151900 15007KT 1SM -SN OVC010
     FM160000 12007KT 2SM -SN BR OVC015=

USA.gov is the U.S. government's official web portal to all federal, state and local government web resources and services.